createdAt,value
2019-02-27T00:03:01.126Z,13.88
2019-02-27T00:08:05.914Z,14.70
2019-02-27T00:13:10.699Z,12.87
2019-02-27T00:18:15.481Z,13.30
2019-02-27T00:23:23.883Z,15.10
2019-02-27T00:28:26.660Z,14.03
2019-02-27T00:33:31.447Z,13.07
2019-02-27T00:38:36.255Z,13.67
2019-02-27T00:43:41.033Z,16.53
2019-02-27T00:48:45.848Z,17.93
2019-02-27T00:53:50.630Z,12.70
2019-02-27T00:58:59.847Z,12.33
2019-02-27T01:04:02.483Z,13.70
2019-02-27T01:09:07.378Z,15.50
2019-02-27T01:14:13.771Z,13.07
2019-02-27T01:19:18.564Z,14.17
2019-02-27T01:24:23.340Z,13.70
2019-02-27T01:29:28.099Z,13.17
2019-02-27T01:34:32.891Z,13.33
2019-02-27T01:39:37.679Z,14.20
2019-02-27T01:44:43.967Z,14.03
2019-02-27T01:49:50.247Z,13.40
2019-02-27T01:54:55.018Z,13.33
2019-02-27T01:59:59.790Z,12.03
2019-02-27T02:05:04.835Z,12.60
2019-02-27T02:10:09.863Z,14.13
2019-02-27T02:15:21.981Z,12.70
2019-02-27T02:20:48.198Z,13.83
2019-02-27T02:26:42.710Z,13.03
2019-02-27T02:31:52.366Z,11.97
2019-02-27T02:37:45.310Z,15.27
2019-02-27T02:43:19.386Z,15.08
2019-02-27T02:48:38.271Z,11.80
2019-02-27T02:54:21.392Z,15.80
2019-02-27T03:00:03.820Z,15.33
2019-02-27T03:05:24.855Z,12.93
2019-02-27T03:11:05.631Z,13.93
2019-02-27T03:16:55.738Z,15.27
2019-02-27T03:22:32.861Z,16.63
2019-02-27T03:28:31.450Z,17.17
2019-02-27T03:34:13.428Z,12.70
2019-02-27T03:39:56.585Z,11.23
2019-02-27T03:45:31.026Z,12.80
2019-02-27T03:51:05.680Z,16.20
2019-02-27T03:56:23.235Z,14.90
2019-02-27T04:02:05.750Z,16.23
2019-02-27T04:07:31.775Z,15.20
2019-02-27T04:12:37.467Z,12.17
2019-02-27T04:17:41.063Z,13.00
2019-02-27T04:22:45.835Z,13.87
2019-02-27T04:27:55.254Z,14.27
2019-02-27T04:32:57.045Z,14.60
2019-02-27T04:38:01.824Z,13.47
2019-02-27T04:43:06.616Z,12.37
2019-02-27T04:48:11.424Z,12.87
2019-02-27T04:53:16.207Z,12.70
2019-02-27T04:58:20.987Z,12.80
2019-02-27T05:03:27.934Z,15.67
2019-02-27T05:08:32.189Z,16.37
2019-02-27T05:13:37.955Z,13.83
2019-02-27T05:18:42.738Z,14.77
2019-02-27T05:23:47.519Z,14.63
2019-02-27T05:28:52.353Z,15.60
2019-02-27T05:33:57.126Z,12.80
2019-02-27T05:39:01.907Z,13.80
2019-02-27T05:44:08.314Z,13.70
2019-02-27T05:49:13.119Z,13.43
2019-02-27T05:54:17.905Z,13.00
2019-02-27T05:59:22.687Z,12.83
2019-02-27T06:04:27.778Z,14.60
2019-02-27T06:09:32.572Z,14.30
2019-02-27T06:14:37.357Z,15.20
2019-02-27T06:19:42.139Z,15.20
2019-02-27T06:24:46.928Z,16.00
2019-02-27T06:29:51.711Z,16.57
2019-02-27T06:34:59.451Z,18.43
2019-02-27T06:40:04.771Z,14.63
2019-02-27T06:45:12.704Z,13.87
2019-02-27T06:50:18.019Z,14.57
2019-02-27T06:55:25.503Z,15.20
2019-02-27T07:00:29.241Z,17.27
2019-02-27T07:05:34.032Z,16.70
2019-02-27T07:10:38.826Z,17.30
2019-02-27T07:15:47.899Z,14.27
2019-02-27T07:20:50.003Z,17.33
2019-02-27T07:25:54.842Z,16.83
2019-02-27T07:30:59.547Z,17.03
2019-02-27T07:36:04.339Z,16.50
2019-02-27T07:41:09.120Z,16.47
2019-02-27T07:46:13.935Z,16.15
2019-02-27T07:51:20.796Z,15.75
2019-02-27T07:56:26.174Z,15.32
2019-02-27T08:01:30.947Z,16.60
2019-02-27T08:06:37.808Z,15.75
2019-02-27T08:11:42.106Z,14.55
2019-02-27T08:16:48.007Z,14.13
2019-02-27T08:21:52.948Z,15.32
2019-02-27T08:26:57.725Z,14.63
2019-02-27T08:32:02.494Z,14.68
2019-02-27T08:37:07.266Z,14.83
2019-02-27T08:42:12.024Z,14.43
2019-02-27T08:47:16.838Z,14.10
2019-02-27T08:52:21.618Z,15.10
2019-02-27T08:57:26.433Z,13.40
2019-02-27T09:02:31.205Z,13.48
2019-02-27T09:07:36.477Z,13.75
2019-02-27T09:12:41.768Z,14.35
2019-02-27T09:17:46.528Z,14.95
2019-02-27T09:22:51.311Z,15.30
2019-02-27T09:27:56.088Z,14.33
2019-02-27T09:33:00.949Z,14.50
2019-02-27T09:38:05.902Z,14.63
2019-02-27T09:43:11.692Z,15.10
2019-02-27T09:48:19.281Z,14.68
2019-02-27T09:53:24.116Z,13.80
2019-02-27T09:58:28.886Z,15.45
2019-02-27T10:03:33.648Z,16.33
2019-02-27T10:08:38.412Z,13.58
2019-02-27T10:13:43.188Z,14.00
2019-02-27T10:18:47.958Z,15.72
2019-02-27T10:23:53.283Z,14.30
2019-02-27T10:28:59.176Z,16.10
2019-02-27T10:34:03.945Z,15.03
2019-02-27T10:39:08.721Z,15.40
2019-02-27T10:44:13.887Z,16.53
2019-02-27T10:49:21.540Z,16.03
2019-02-27T10:54:25.140Z,14.00
2019-02-27T10:59:29.921Z,13.17
2019-02-27T11:04:36.315Z,12.47
2019-02-27T11:09:41.945Z,13.07
2019-02-27T11:14:46.802Z,12.73
2019-02-27T11:19:52.563Z,12.10
2019-02-27T11:24:59.184Z,12.67
2019-02-27T11:30:04.191Z,10.83
2019-02-27T11:35:10.739Z,9.00
2019-02-27T11:40:17.889Z,8.77
2019-02-27T11:45:24.684Z,7.27
2019-02-27T11:50:29.089Z,7.27
2019-02-27T11:55:34.028Z,4.23
2019-02-27T12:00:38.799Z,3.60
2019-02-27T12:05:43.574Z,4.80
2019-02-27T12:10:48.358Z,5.80
2019-02-27T12:15:53.140Z,6.47
2019-02-27T12:20:57.916Z,5.63
2019-02-27T12:26:03.218Z,5.87
2019-02-27T12:31:08.189Z,5.73
2019-02-27T12:36:16.113Z,6.27
2019-02-27T12:41:20.758Z,6.87
2019-02-27T12:46:25.566Z,7.77
2019-02-27T12:51:30.338Z,7.93
2019-02-27T12:56:35.106Z,8.60
2019-02-27T13:01:39.920Z,7.43
2019-02-27T13:06:44.687Z,5.80
2019-02-27T13:11:49.465Z,6.73
2019-02-27T13:16:54.254Z,6.93
2019-02-27T13:21:59.013Z,7.17
2019-02-27T13:27:06.533Z,7.70
2019-02-27T13:32:10.161Z,5.40
2019-02-27T13:37:14.925Z,5.13
2019-02-27T13:42:19.687Z,5.20
2019-02-27T13:47:24.464Z,4.80
2019-02-27T13:52:29.241Z,3.50
2019-02-27T13:57:34.022Z,4.00
2019-02-27T14:02:39.670Z,4.67
2019-02-27T14:07:44.498Z,3.80
2019-02-27T14:12:49.277Z,4.90
2019-02-27T14:17:54.048Z,4.80
2019-02-27T14:22:58.896Z,4.63
2019-02-27T14:28:03.672Z,5.47
2019-02-27T14:33:08.439Z,6.03
2019-02-27T14:38:13.225Z,6.20
2019-02-27T14:43:18.002Z,6.37
2019-02-27T14:48:22.826Z,6.50
2019-02-27T14:53:27.584Z,6.53
2019-02-27T14:58:32.360Z,7.07
2019-02-27T15:03:37.148Z,7.37
2019-02-27T15:08:41.951Z,6.30
2019-02-27T15:13:46.793Z,7.30
2019-02-27T15:18:54.775Z,7.03
2019-02-27T15:23:58.091Z,7.47
2019-02-27T15:29:05.726Z,7.47
2019-02-27T15:34:12.272Z,7.23
2019-02-27T15:39:20.231Z,7.03
2019-02-27T15:44:24.925Z,7.50
2019-02-27T15:49:29.723Z,7.43
2019-02-27T15:54:34.493Z,6.60
2019-02-27T15:59:41.606Z,7.53
2019-02-27T16:04:45.709Z,7.17
2019-02-27T16:09:50.489Z,7.47
2019-02-27T16:14:55.256Z,7.30
2019-02-27T16:20:01.115Z,7.43
2019-02-27T16:25:08.007Z,6.70
2019-02-27T16:30:18.078Z,6.17
2019-02-27T16:35:22.856Z,6.97
2019-02-27T16:40:27.666Z,6.60
2019-02-27T16:45:34.788Z,7.27
2019-02-27T16:50:38.903Z,8.07
2019-02-27T16:55:43.676Z,7.63
2019-02-27T17:00:48.533Z,7.22
2019-02-27T17:05:53.289Z,7.28
2019-02-27T17:10:59.693Z,7.78
2019-02-27T17:16:07.108Z,6.62
2019-02-27T17:21:10.900Z,7.55
2019-02-27T17:26:15.764Z,7.87
2019-02-27T17:31:20.543Z,9.05
2019-02-27T17:36:25.313Z,11.75
2019-02-27T17:41:30.096Z,13.40
2019-02-27T17:46:34.908Z,12.07
2019-02-27T17:51:40.453Z,11.50
2019-02-27T17:56:47.180Z,10.63
2019-02-27T18:01:51.906Z,10.28
2019-02-27T18:06:58.774Z,9.03
2019-02-27T18:12:03.171Z,9.15
2019-02-27T18:17:07.949Z,8.23
2019-02-27T18:22:14.674Z,8.05
2019-02-27T18:27:19.089Z,7.70
2019-02-27T18:32:23.849Z,7.78
2019-02-27T18:37:29.679Z,7.47
2019-02-27T18:42:34.605Z,8.33
2019-02-27T18:47:39.414Z,7.90
2019-02-27T18:52:44.193Z,7.87
2019-02-27T18:57:48.975Z,7.25
2019-02-27T19:02:54.458Z,7.03
2019-02-27T19:07:59.504Z,7.65
2019-02-27T19:13:04.284Z,6.83
2019-02-27T19:18:09.125Z,6.22
2019-02-27T19:23:17.404Z,5.97
2019-02-27T19:28:24.456Z,5.45
2019-02-27T19:33:26.745Z,5.55
2019-02-27T19:38:31.541Z,5.00
2019-02-27T19:43:36.352Z,4.87
2019-02-27T19:48:41.129Z,5.03
2019-02-27T19:53:45.938Z,5.78
2019-02-27T19:58:51.164Z,5.05
2019-02-27T20:03:56.919Z,5.05
2019-02-27T20:09:01.693Z,4.97
2019-02-27T20:14:08.079Z,5.80
2019-02-27T20:19:21.941Z,5.65
2019-02-27T20:24:19.204Z,6.70
2019-02-27T20:29:23.969Z,6.35
2019-02-27T20:34:28.716Z,7.30
2019-02-27T20:39:35.868Z,6.67
2019-02-27T20:44:39.952Z,7.87
2019-02-27T20:49:45.612Z,7.25
2019-02-27T20:54:51.297Z,7.92
2019-02-27T21:00:00.667Z,7.10
2019-02-27T21:05:02.534Z,7.33
2019-02-27T21:10:11.075Z,8.28
2019-02-27T21:15:15.843Z,7.22
2019-02-27T21:20:20.592Z,6.65
2019-02-27T21:25:25.447Z,7.47
2019-02-27T21:30:30.269Z,6.85
2019-02-27T21:35:35.119Z,7.33
2019-02-27T21:40:39.896Z,7.47
2019-02-27T21:45:44.705Z,6.50
2019-02-27T21:50:49.492Z,7.17
2019-02-27T21:55:54.273Z,7.15
2019-02-27T22:00:59.156Z,6.55
2019-02-27T22:06:04.885Z,6.50
2019-02-27T22:11:09.659Z,6.92
2019-02-27T22:16:14.465Z,7.05
2019-02-27T22:21:19.234Z,6.80
2019-02-27T22:26:24.002Z,7.37
2019-02-27T22:31:28.784Z,7.15
2019-02-27T22:36:33.559Z,6.97
2019-02-27T22:41:40.649Z,7.83
2019-02-27T22:46:47.783Z,7.70
2019-02-27T22:51:51.131Z,7.00
2019-02-27T22:56:55.902Z,7.70
2019-02-27T23:02:00.660Z,7.85
2019-02-27T23:07:05.524Z,7.40
2019-02-27T23:12:10.286Z,7.30
2019-02-27T23:17:15.076Z,8.33
2019-02-27T23:22:19.824Z,7.78
2019-02-27T23:27:25.972Z,7.67
2019-02-27T23:32:30.980Z,8.25
2019-02-27T23:37:36.832Z,8.05
2019-02-27T23:42:41.625Z,7.72
2019-02-27T23:47:46.433Z,7.33
2019-02-27T23:52:53.237Z,7.62
2019-02-27T23:57:58.473Z,7.85
